createdAt,value
2022-08-01T00:00:09.324Z,27.36
2022-08-01T00:02:39.516Z,27.35
2022-08-01T00:05:08.101Z,27.75
2022-08-01T00:07:35.506Z,27.31
2022-08-01T00:10:04.019Z,27.38
2022-08-01T00:12:30.989Z,27.40
2022-08-01T00:14:57.585Z,27.28
2022-08-01T00:17:24.418Z,27.75
2022-08-01T00:19:50.948Z,27.97
2022-08-01T00:22:18.018Z,27.86
2022-08-01T00:24:44.912Z,28.32
2022-08-01T00:27:12.216Z,28.39
2022-08-01T00:30:09.536Z,28.56
2022-08-01T00:32:25.613Z,28.56
2022-08-01T00:34:52.220Z,28.19
2022-08-01T00:37:19.084Z,28.35
2022-08-01T00:39:45.663Z,28.31
2022-08-01T00:42:13.430Z,28.47
2022-08-01T00:44:40.839Z,28.66
2022-08-01T00:47:08.606Z,28.77
2022-08-01T00:49:35.753Z,28.61
2022-08-01T00:52:06.903Z,28.78
2022-08-01T00:54:33.775Z,28.87
2022-08-01T00:57:00.772Z,28.58
2022-08-01T00:59:28.619Z,28.45
2022-08-01T01:01:56.376Z,28.37
2022-08-01T01:04:23.336Z,28.80
2022-08-01T01:07:33.334Z,28.73
2022-08-01T01:10:09.266Z,28.35
2022-08-01T01:12:49.947Z,28.22
2022-08-01T01:15:37.226Z,28.53
2022-08-01T01:18:15.343Z,28.45
2022-08-01T01:20:45.690Z,28.25
2022-08-01T01:23:45.909Z,28.37
2022-08-01T01:26:24.647Z,28.21
2022-08-01T01:29:15.139Z,28.10
2022-08-01T01:31:50.733Z,28.06
2022-08-01T01:34:20.638Z,28.10
2022-08-01T01:36:48.981Z,27.78
2022-08-01T01:39:16.952Z,27.92
2022-08-01T01:41:46.263Z,28.03
2022-08-01T01:44:14.626Z,27.76
2022-08-01T01:46:42.390Z,27.69
2022-08-01T01:49:11.323Z,27.73
2022-08-01T01:51:40.217Z,27.50
2022-08-01T01:54:09.267Z,27.53
2022-08-01T01:56:49.330Z,27.66
2022-08-01T01:59:26.646Z,27.37
2022-08-01T02:02:05.781Z,27.69
2022-08-01T02:04:36.914Z,28.00
2022-08-01T02:07:04.161Z,27.69
2022-08-01T02:09:32.834Z,27.70
2022-08-01T02:12:08.707Z,27.88
2022-08-01T02:14:41.114Z,27.95
2022-08-01T02:17:11.951Z,27.85
2022-08-01T02:19:39.267Z,27.60
2022-08-01T02:22:10.508Z,27.75
2022-08-01T02:24:51.814Z,27.61
2022-08-01T02:27:29.618Z,27.99
2022-08-01T02:30:02.244Z,27.73
2022-08-01T02:32:39.410Z,28.00
2022-08-01T02:35:09.839Z,27.66
2022-08-01T02:37:44.328Z,27.75
2022-08-01T02:40:14.577Z,27.94
2022-08-01T02:42:46.355Z,28.03
2022-08-01T02:45:13.987Z,28.05
2022-08-01T02:47:42.390Z,27.82
2022-08-01T02:50:13.370Z,27.87
2022-08-01T02:52:42.615Z,27.55
2022-08-01T02:55:11.268Z,27.72
2022-08-01T02:57:52.587Z,27.91
2022-08-01T03:00:25.092Z,27.78
2022-08-01T03:02:55.864Z,27.78
2022-08-01T03:05:25.121Z,27.84
2022-08-01T03:07:53.861Z,27.59
2022-08-01T03:10:22.318Z,27.34
2022-08-01T03:12:50.980Z,27.59
2022-08-01T03:15:20.472Z,27.70
2022-08-01T03:17:49.278Z,27.75
2022-08-01T03:20:19.226Z,27.78
2022-08-01T03:22:46.816Z,27.67
2022-08-01T03:25:14.871Z,27.49
2022-08-01T03:27:44.260Z,27.15
2022-08-01T03:30:12.592Z,26.90
2022-08-01T03:32:39.489Z,26.73
2022-08-01T03:35:06.464Z,27.10
2022-08-01T03:38:15.172Z,27.06
2022-08-01T03:40:53.366Z,27.13
2022-08-01T03:43:41.753Z,26.83
2022-08-01T03:46:14.489Z,26.64
2022-08-01T03:48:46.152Z,26.50
2022-08-01T03:51:14.664Z,26.83
2022-08-01T03:53:43.101Z,26.77
2022-08-01T03:56:11.312Z,26.91
2022-08-01T03:58:40.686Z,27.15
2022-08-01T04:01:15.400Z,27.01
2022-08-01T04:03:43.558Z,26.84
2022-08-01T04:06:11.439Z,27.07
2022-08-01T04:08:39.356Z,26.94
2022-08-01T04:11:06.507Z,26.91
2022-08-01T04:13:37.177Z,27.14
2022-08-01T04:16:05.407Z,27.13
2022-08-01T04:18:33.002Z,27.25
2022-08-01T04:20:59.622Z,27.05
2022-08-01T04:23:28.458Z,27.08
2022-08-01T04:25:56.363Z,27.09
2022-08-01T04:28:23.882Z,27.34
2022-08-01T04:30:52.872Z,27.17
2022-08-01T04:33:21.102Z,27.18
2022-08-01T04:36:03.929Z,26.91
2022-08-01T04:38:34.337Z,26.92
2022-08-01T04:41:09.264Z,27.59
2022-08-01T04:43:40.132Z,27.52
2022-08-01T04:46:08.160Z,27.19
2022-08-01T04:48:37.882Z,26.93
2022-08-01T04:51:04.785Z,27.30
2022-08-01T04:53:33.301Z,27.33
2022-08-01T04:55:59.887Z,27.54
2022-08-01T04:58:26.416Z,27.66
2022-08-01T05:00:53.004Z,27.72
2022-08-01T05:03:19.811Z,27.59
2022-08-01T05:05:46.583Z,27.38
2022-08-01T05:08:13.115Z,27.30
2022-08-01T05:10:39.802Z,27.39
2022-08-01T05:13:07.429Z,27.56
2022-08-01T05:15:37.525Z,27.83
2022-08-01T05:18:04.475Z,27.71
2022-08-01T05:20:31.041Z,27.85
2022-08-01T05:22:58.506Z,27.70
2022-08-01T05:25:25.821Z,27.86
2022-08-01T05:28:12.399Z,27.84
2022-08-01T05:30:45.834Z,27.62
2022-08-01T05:33:12.401Z,27.61
2022-08-01T05:35:47.834Z,27.46
2022-08-01T05:38:15.941Z,27.52
2022-08-01T05:40:42.634Z,27.01
2022-08-01T05:43:09.195Z,27.01
2022-08-01T05:45:35.788Z,27.58
2022-08-01T05:48:02.597Z,27.86
2022-08-01T05:50:29.418Z,28.10
2022-08-01T05:52:56.422Z,27.87
2022-08-01T05:55:22.970Z,28.38
2022-08-01T05:57:49.518Z,28.63
2022-08-01T06:00:17.070Z,28.73
2022-08-01T06:02:44.687Z,28.92
2022-08-01T06:05:13.545Z,29.07
2022-08-01T06:07:40.649Z,29.02
2022-08-01T06:10:08.557Z,28.85
2022-08-01T06:12:35.993Z,29.09
2022-08-01T06:15:04.554Z,29.06
2022-08-01T06:17:31.189Z,28.59
2022-08-01T06:19:58.409Z,28.56
2022-08-01T06:22:24.949Z,28.41
2022-08-01T06:24:52.423Z,28.04
2022-08-01T06:27:22.174Z,27.84
2022-08-01T06:29:53.449Z,27.53
2022-08-01T06:32:27.401Z,27.29
2022-08-01T06:34:55.229Z,27.21
2022-08-01T06:37:22.433Z,27.20
2022-08-01T06:39:50.326Z,26.71
2022-08-01T06:42:16.991Z,27.21
2022-08-01T06:44:43.551Z,27.14
2022-08-01T06:47:10.103Z,27.52
2022-08-01T06:49:36.709Z,29.30
2022-08-01T06:52:04.831Z,30.53
2022-08-01T06:54:31.982Z,30.54
2022-08-01T06:56:58.560Z,30.60
2022-08-01T06:59:25.153Z,28.30
2022-08-01T07:01:52.047Z,27.25
2022-08-01T07:04:18.611Z,27.07
2022-08-01T07:06:45.473Z,27.00
2022-08-01T07:09:14.405Z,27.18
2022-08-01T07:11:42.015Z,27.37
2022-08-01T07:14:08.958Z,27.48
2022-08-01T07:16:35.842Z,27.61
2022-08-01T07:19:02.462Z,27.65
2022-08-01T07:21:40.055Z,27.44
2022-08-01T07:24:14.518Z,27.78
2022-08-01T07:26:54.025Z,27.97
2022-08-01T07:29:27.786Z,28.24
2022-08-01T07:41:53.388Z,27.92
2022-08-01T07:44:22.758Z,27.86
2022-08-01T07:46:49.298Z,27.81
2022-08-01T07:49:16.117Z,28.23
2022-08-01T07:51:42.712Z,27.90
2022-08-01T07:54:33.442Z,27.58
2022-08-01T07:57:02.046Z,27.17
2022-08-01T07:59:28.655Z,27.05
2022-08-01T08:01:55.252Z,26.92
2022-08-01T08:04:22.607Z,29.29
2022-08-01T08:06:50.023Z,29.92
2022-08-01T08:09:17.238Z,29.29
2022-08-01T08:11:48.393Z,29.73
2022-08-01T08:14:16.010Z,30.68
2022-08-01T08:16:43.616Z,31.56
2022-08-01T08:19:10.386Z,31.69
2022-08-01T08:21:38.673Z,31.46
2022-08-01T08:24:25.994Z,31.91
2022-08-01T08:26:59.371Z,32.18
2022-08-01T08:29:27.339Z,32.47
2022-08-01T08:31:57.046Z,32.61
2022-08-01T08:34:24.593Z,29.09
2022-08-01T08:36:51.795Z,28.41
2022-08-01T08:39:19.796Z,28.74
2022-08-01T08:41:49.304Z,28.40
2022-08-01T08:44:18.183Z,28.20
2022-08-01T08:46:51.846Z,28.26
2022-08-01T08:49:24.890Z,27.99
2022-08-01T08:51:53.521Z,27.84
2022-08-01T08:54:29.054Z,28.22
2022-08-01T08:56:59.836Z,28.08
2022-08-01T08:59:27.581Z,27.92
2022-08-01T09:01:54.321Z,28.00
2022-08-01T09:04:25.880Z,28.06
2022-08-01T09:06:53.974Z,28.38
2022-08-01T09:09:20.510Z,27.83
2022-08-01T09:11:56.859Z,27.87
2022-08-01T09:14:28.511Z,28.16
2022-08-01T09:17:07.580Z,28.42
2022-08-01T09:19:42.432Z,28.90
2022-08-01T09:22:14.019Z,28.12
2022-08-01T09:24:41.674Z,28.32
2022-08-01T09:27:25.121Z,28.83
2022-08-01T09:30:01.017Z,28.67
2022-08-01T09:32:35.907Z,29.21
2022-08-01T09:35:31.040Z,29.32
2022-08-01T09:38:21.155Z,29.23
2022-08-01T09:40:59.570Z,29.66
2022-08-01T09:43:28.786Z,30.35
2022-08-01T09:45:58.229Z,30.99
2022-08-01T09:48:27.993Z,30.65
2022-08-01T09:51:00.917Z,31.56
2022-08-01T09:53:52.132Z,31.78
2022-08-01T09:56:22.607Z,32.19
2022-08-01T09:58:57.806Z,32.19
2022-08-01T10:01:25.477Z,32.31
2022-08-01T10:04:22.355Z,32.57
2022-08-01T10:06:53.454Z,32.76
2022-08-01T10:09:40.681Z,31.99
2022-08-01T10:12:15.741Z,31.98
2022-08-01T10:14:50.183Z,32.02
2022-08-01T10:17:19.956Z,32.14
2022-08-01T10:19:50.458Z,32.34
2022-08-01T10:22:19.304Z,32.19
2022-08-01T10:24:48.117Z,32.41
2022-08-01T10:27:17.311Z,32.21
2022-08-01T10:30:08.636Z,32.67
2022-08-01T10:32:50.632Z,32.87
2022-08-01T10:35:45.683Z,33.50
2022-08-01T10:38:05.961Z,33.92
2022-08-01T10:40:32.908Z,33.59
2022-08-01T10:42:59.812Z,34.03
2022-08-01T10:45:27.652Z,33.74
2022-08-01T10:48:06.803Z,33.47
2022-08-01T10:50:43.497Z,33.02
2022-08-01T10:53:16.371Z,33.50
2022-08-01T10:55:57.107Z,33.95
2022-08-01T10:58:42.581Z,33.68
2022-08-01T11:01:27.801Z,34.02
2022-08-01T11:04:01.900Z,33.76
2022-08-01T11:06:41.232Z,33.89
2022-08-01T11:09:16.214Z,33.75
2022-08-01T11:12:13.182Z,33.87
2022-08-01T11:15:00.553Z,34.02
2022-08-01T11:17:48.932Z,33.87
2022-08-01T11:20:42.867Z,34.11
2022-08-01T11:23:13.529Z,33.94
2022-08-01T11:26:04.683Z,34.17
2022-08-01T11:28:33.876Z,33.50
2022-08-01T11:31:07.955Z,33.59
2022-08-01T11:33:41.765Z,34.11
2022-08-01T11:36:12.518Z,34.00
2022-08-01T11:39:13.746Z,34.43
2022-08-01T11:41:42.140Z,34.35
2022-08-01T11:44:20.958Z,34.64
2022-08-01T11:47:08.975Z,34.61
2022-08-01T11:49:41.943Z,35.42
2022-08-01T11:52:17.408Z,35.46
2022-08-01T11:54:45.714Z,35.28
2022-08-01T11:57:34.070Z,35.39
2022-08-01T12:00:03.213Z,35.69
2022-08-01T12:02:39.441Z,35.29
2022-08-01T12:05:12.761Z,35.08
2022-08-01T12:07:42.428Z,34.92
2022-08-01T12:10:14.498Z,34.55
2022-08-01T12:13:03.335Z,34.42
2022-08-01T12:15:32.566Z,34.35
2022-08-01T12:18:00.995Z,34.14
2022-08-01T12:20:31.603Z,34.61
2022-08-01T12:23:02.000Z,34.21
2022-08-01T12:25:28.902Z,34.22
2022-08-01T12:27:56.890Z,34.08
2022-08-01T12:30:25.126Z,34.29
2022-08-01T12:32:53.736Z,34.29
2022-08-01T12:35:25.368Z,34.44
2022-08-01T12:37:53.154Z,34.05
2022-08-01T12:40:25.522Z,33.78
2022-08-01T12:42:54.949Z,37.43
2022-08-01T12:45:29.652Z,39.76
2022-08-01T12:47:58.492Z,39.35
2022-08-01T12:50:29.099Z,39.08
2022-08-01T12:52:55.915Z,38.94
2022-08-01T12:55:34.018Z,39.25
2022-08-01T12:58:15.457Z,39.40
2022-08-01T13:00:45.343Z,40.16
2022-08-01T13:03:15.442Z,39.27
2022-08-01T13:05:49.654Z,40.36
2022-08-01T13:08:21.205Z,40.31
2022-08-01T13:10:48.571Z,39.97
2022-08-01T13:13:28.263Z,39.67
2022-08-01T13:16:06.237Z,39.85
2022-08-01T13:18:34.630Z,39.17
2022-08-01T13:21:21.686Z,38.62
2022-08-01T13:24:12.212Z,38.84
2022-08-01T13:26:45.093Z,38.77
2022-08-01T13:29:14.562Z,38.53
2022-08-01T13:31:42.269Z,38.79
2022-08-01T13:34:09.252Z,38.35
2022-08-01T13:36:36.668Z,38.52
2022-08-01T13:39:22.953Z,39.25
2022-08-01T13:41:49.749Z,38.74
2022-08-01T13:44:16.497Z,38.73
2022-08-01T13:46:49.627Z,38.75
2022-08-01T13:49:17.925Z,38.40
2022-08-01T13:51:47.309Z,37.81
2022-08-01T13:54:14.007Z,37.84
2022-08-01T13:56:40.571Z,37.51
2022-08-01T13:59:07.562Z,38.01
2022-08-01T14:01:34.944Z,38.39
2022-08-01T14:04:02.566Z,37.87
2022-08-01T14:06:29.153Z,38.23
2022-08-01T14:08:55.744Z,38.52
2022-08-01T14:11:22.598Z,38.77
2022-08-01T14:13:49.147Z,39.48
2022-08-01T14:16:17.906Z,38.67
2022-08-01T14:18:44.476Z,38.38
2022-08-01T14:21:11.858Z,37.69
2022-08-01T14:23:39.214Z,38.01
2022-08-01T14:26:11.836Z,37.66
2022-08-01T14:28:41.091Z,37.65
2022-08-01T14:31:08.795Z,36.76
2022-08-01T14:33:35.505Z,36.61
2022-08-01T14:36:21.276Z,35.47
2022-08-01T14:38:50.571Z,34.75
2022-08-01T14:41:17.160Z,34.92
2022-08-01T14:43:43.723Z,34.35
2022-08-01T14:46:10.946Z,35.22
2022-08-01T14:48:37.990Z,34.46
2022-08-01T14:51:07.943Z,34.59
2022-08-01T14:53:36.143Z,34.35
2022-08-01T14:56:04.811Z,34.04
2022-08-01T14:58:31.437Z,34.17
2022-08-01T15:00:59.113Z,34.57
2022-08-01T15:03:26.905Z,35.18
2022-08-01T15:05:53.881Z,34.34
2022-08-01T15:08:20.467Z,34.26
2022-08-01T15:10:47.045Z,34.21
2022-08-01T15:13:13.581Z,33.95
2022-08-01T15:15:40.127Z,33.52
2022-08-01T15:18:07.125Z,33.29
2022-08-01T15:20:34.002Z,33.55
2022-08-01T15:23:00.861Z,32.96
2022-08-01T15:25:41.236Z,32.85
2022-08-01T15:28:13.307Z,33.57
2022-08-01T15:30:40.408Z,33.46
2022-08-01T15:33:07.520Z,33.36
2022-08-01T15:35:34.394Z,33.47
2022-08-01T15:38:00.950Z,33.59
2022-08-01T15:40:29.103Z,33.13
2022-08-01T15:42:55.775Z,33.05
2022-08-01T15:45:46.472Z,33.21
2022-08-01T15:48:10.060Z,33.06
2022-08-01T15:50:39.015Z,33.11
2022-08-01T15:53:06.162Z,32.87
2022-08-01T15:55:32.830Z,33.09
2022-08-01T15:57:59.494Z,33.57
2022-08-01T16:00:26.044Z,33.86
2022-08-01T16:03:00.481Z,33.53
2022-08-01T16:05:27.058Z,32.76
2022-08-01T16:07:59.653Z,32.57
2022-08-01T16:10:29.774Z,32.11
2022-08-01T16:12:56.315Z,31.78
2022-08-01T16:15:23.007Z,31.33
2022-08-01T16:18:03.396Z,31.42
2022-08-01T16:20:30.238Z,31.36
2022-08-01T16:22:56.790Z,30.90
2022-08-01T16:25:23.410Z,31.01
2022-08-01T16:27:49.985Z,31.03
2022-08-01T16:30:16.825Z,31.22
2022-08-01T16:32:47.679Z,31.37
2022-08-01T16:35:18.498Z,31.19
2022-08-01T16:37:45.037Z,31.07
2022-08-01T16:40:11.916Z,31.26
2022-08-01T16:42:38.471Z,31.30
2022-08-01T16:45:12.807Z,31.34
2022-08-01T16:47:41.008Z,31.42
2022-08-01T16:50:09.453Z,31.58
2022-08-01T16:52:42.190Z,31.55
2022-08-01T16:55:10.781Z,31.61
2022-08-01T16:57:38.360Z,31.71
2022-08-01T17:00:09.474Z,31.88
2022-08-01T17:02:37.415Z,31.99
2022-08-01T17:05:08.596Z,31.83
2022-08-01T17:07:40.327Z,31.72
2022-08-01T17:10:07.471Z,31.84
2022-08-01T17:12:35.467Z,31.71
2022-08-01T17:15:02.239Z,30.93
2022-08-01T17:17:28.826Z,30.68
2022-08-01T17:19:55.422Z,30.78
2022-08-01T17:22:22.330Z,31.07
2022-08-01T17:24:50.973Z,31.27
2022-08-01T17:27:18.355Z,31.26
2022-08-01T17:29:45.240Z,30.85
2022-08-01T17:32:13.138Z,31.04
2022-08-01T17:34:40.734Z,30.83
2022-08-01T17:37:07.785Z,30.65
2022-08-01T17:39:37.811Z,30.53
2022-08-01T17:42:07.246Z,30.36
2022-08-01T17:44:34.005Z,30.43
2022-08-01T17:47:00.547Z,29.91
2022-08-01T17:49:52.424Z,29.89
2022-08-01T17:52:13.924Z,29.76
2022-08-01T17:54:41.923Z,29.70
2022-08-01T17:57:09.040Z,29.24
2022-08-01T17:59:36.400Z,29.68
2022-08-01T18:02:04.479Z,29.47
2022-08-01T18:04:33.763Z,29.49
2022-08-01T18:07:01.009Z,29.65
2022-08-01T18:09:32.404Z,29.63
2022-08-01T18:11:59.822Z,29.60
2022-08-01T18:14:40.226Z,29.29
2022-08-01T18:17:11.506Z,29.37
2022-08-01T18:19:39.641Z,28.77
2022-08-01T18:22:31.297Z,28.76
2022-08-01T18:24:53.837Z,28.61
2022-08-01T18:27:20.422Z,28.84
2022-08-01T18:29:48.388Z,28.97
2022-08-01T18:32:15.737Z,28.76
2022-08-01T18:34:42.386Z,28.77
2022-08-01T18:37:11.361Z,28.95
2022-08-01T18:39:39.767Z,28.78
2022-08-01T18:42:06.520Z,28.72
2022-08-01T18:44:33.135Z,28.81
2022-08-01T18:47:00.194Z,28.71
2022-08-01T18:49:26.797Z,28.45
2022-08-01T18:51:54.182Z,28.14
2022-08-01T18:54:20.731Z,27.94
2022-08-01T18:56:47.342Z,28.14
2022-08-01T18:59:14.521Z,27.85
2022-08-01T19:01:41.252Z,27.82
2022-08-01T19:04:08.975Z,27.59
2022-08-01T19:06:35.865Z,27.75
2022-08-01T19:09:03.575Z,27.90
2022-08-01T19:11:31.850Z,27.71
2022-08-01T19:14:00.207Z,27.74
2022-08-01T19:16:28.124Z,27.65
2022-08-01T19:18:54.799Z,27.87
2022-08-01T19:21:22.354Z,28.03
2022-08-01T19:24:07.332Z,28.12
2022-08-01T19:26:35.957Z,27.94
2022-08-01T19:29:09.677Z,27.72
2022-08-01T19:31:41.589Z,27.72
2022-08-01T19:34:12.721Z,27.65
2022-08-01T19:36:39.675Z,27.58
2022-08-01T19:39:07.661Z,27.57
2022-08-01T19:41:34.895Z,27.57
2022-08-01T19:44:03.360Z,27.53
2022-08-01T19:46:30.816Z,27.54
2022-08-01T19:48:57.763Z,27.52
2022-08-01T19:51:33.791Z,27.45
2022-08-01T19:54:05.002Z,27.40
2022-08-01T19:56:39.593Z,27.29
2022-08-01T19:59:09.855Z,27.05
2022-08-01T20:01:36.966Z,26.97
2022-08-01T20:04:04.955Z,26.98
2022-08-01T20:06:32.905Z,27.09
2022-08-01T20:08:59.933Z,27.18
2022-08-01T20:11:27.119Z,27.08
2022-08-01T20:13:56.780Z,26.88
2022-08-01T20:16:32.387Z,26.74
2022-08-01T20:18:59.361Z,26.63
2022-08-01T20:21:27.425Z,26.47
2022-08-01T20:24:02.706Z,26.28
2022-08-01T20:26:31.658Z,26.28
2022-08-01T20:29:00.373Z,26.18
2022-08-01T20:31:28.164Z,26.49
2022-08-01T20:34:00.783Z,25.96
2022-08-01T20:36:28.317Z,25.95
2022-08-01T20:38:56.707Z,25.97
2022-08-01T20:41:25.803Z,25.86
2022-08-01T20:43:55.109Z,25.68
2022-08-01T20:46:25.275Z,25.60
2022-08-01T20:48:57.298Z,25.75
2022-08-01T20:51:28.970Z,27.73
2022-08-01T20:53:56.083Z,29.42
2022-08-01T20:56:30.000Z,30.11
2022-08-01T20:59:55.515Z,30.32
2022-08-01T21:02:26.974Z,28.36
2022-08-01T21:05:36.511Z,29.21
2022-08-01T21:08:22.489Z,27.91
2022-08-01T21:10:56.923Z,26.49
2022-08-01T21:13:32.024Z,25.92
2022-08-01T21:16:22.704Z,25.85
2022-08-01T21:19:10.059Z,27.92
2022-08-01T21:21:42.901Z,29.54
2022-08-01T21:24:15.972Z,29.83
2022-08-01T21:26:43.753Z,28.57
2022-08-01T21:29:11.159Z,26.88
2022-08-01T21:31:40.823Z,28.74
2022-08-01T21:34:08.775Z,29.28
2022-08-01T21:36:36.000Z,29.08
2022-08-01T21:39:05.477Z,29.35
2022-08-01T21:41:56.591Z,27.13
2022-08-01T21:44:19.834Z,25.86
2022-08-01T21:46:48.110Z,25.50
2022-08-01T21:49:14.790Z,25.33
2022-08-01T21:51:47.581Z,25.28
2022-08-01T21:54:28.729Z,25.01
2022-08-01T21:57:17.681Z,24.88
2022-08-01T21:59:56.076Z,24.82
2022-08-01T22:02:36.452Z,24.72
2022-08-01T22:05:08.688Z,24.58
2022-08-01T22:07:39.506Z,24.70
2022-08-01T22:10:06.870Z,24.55
2022-08-01T22:12:35.551Z,24.57
2022-08-01T22:15:05.997Z,24.45
2022-08-01T22:17:33.404Z,24.41
2022-08-01T22:20:00.618Z,24.33
2022-08-01T22:22:45.002Z,24.22
2022-08-01T22:25:15.665Z,24.27
2022-08-01T22:28:03.163Z,24.38
2022-08-01T22:30:29.473Z,24.34
2022-08-01T22:33:15.755Z,24.31
2022-08-01T22:35:52.573Z,24.19
2022-08-01T22:38:24.339Z,24.17
2022-08-01T22:41:01.330Z,24.10
2022-08-01T22:43:37.385Z,23.83
2022-08-01T22:46:14.444Z,23.80
2022-08-01T22:48:44.237Z,23.94
2022-08-01T22:51:40.069Z,23.90
2022-08-01T22:54:09.844Z,23.92
2022-08-01T22:56:41.403Z,23.86
2022-08-01T22:59:13.673Z,23.67
2022-08-01T23:01:47.766Z,23.68
2022-08-01T23:04:29.510Z,23.53
2022-08-01T23:07:05.382Z,23.61
2022-08-01T23:09:52.983Z,23.35
2022-08-01T23:12:22.793Z,23.45
2022-08-01T23:14:51.271Z,23.36
2022-08-01T23:17:27.061Z,23.29
2022-08-01T23:20:00.375Z,23.21
2022-08-01T23:22:30.887Z,23.37
2022-08-01T23:25:04.246Z,23.31
2022-08-01T23:27:54.200Z,23.61
2022-08-01T23:30:30.785Z,23.40
2022-08-01T23:32:58.141Z,23.24
2022-08-01T23:35:26.497Z,23.16
2022-08-01T23:37:53.420Z,23.19
2022-08-01T23:40:20.757Z,22.88
2022-08-01T23:42:53.482Z,22.77
2022-08-01T23:45:21.111Z,22.67
2022-08-01T23:47:47.673Z,22.75
2022-08-01T23:50:14.252Z,22.82
2022-08-01T23:52:41.308Z,22.81
2022-08-01T23:55:15.670Z,22.65
2022-08-01T23:57:42.765Z,22.80
